ADDS METAR Data INFO
IDs: Format: Raw Decoded Include TAF

Data at: 2139 UTC 15 Dec 2017

KPGV 152125Z AUTO 32005KT 10SM CLR 10/01 A2995 RMK AO2
KPGV 152105Z AUTO 29007G15KT 10SM CLR 10/01 A2994 RMK AO2
KPGV 152045Z AUTO 31006KT 10SM CLR 11/01 A2993 RMK AO2
KPGV 152025Z AUTO 29006KT 10SM CLR 11/02 A2993 RMK AO2
KPGV 152005Z AUTO 26004KT 10SM CLR 11/02 A2992 RMK AO2
KPGV 151945Z AUTO 29005KT 10SM CLR 12/02 A2992 RMK AO2
KPGV 151925Z AUTO 26005KT 10SM CLR 12/02 A2992 RMK AO2
KPGV 151905Z AUTO 26006KT 10SM CLR 13/02 A2991 RMK AO2
KPGV 151845Z AUTO 25009KT 10SM CLR 12/02 A2991 RMK AO2
KPGV 151825Z AUTO 24009KT 10SM CLR 12/02 A2990 RMK AO2
KPGV 151805Z AUTO 23010KT 10SM CLR 12/02 A2991 RMK AO2
KPGV 151745Z AUTO 25008KT 10SM CLR 12/03 A2992 RMK AO2
KPGV 151725Z AUTO 23007KT 10SM CLR 11/03 A2993 RMK AO2
KPGV 151705Z AUTO 23006KT 10SM CLR 11/03 A2995 RMK AO2
KPGV 151645Z AUTO 22007KT 10SM CLR 11/03 A2996 RMK AO2
KPGV 151625Z AUTO 23007KT 10SM CLR 10/03 A2996 RMK AO2
KPGV 151605Z AUTO 21003KT 10SM CLR 10/03 A2998 RMK AO2
KPGV 151545Z AUTO 18003KT 10SM CLR 08/02 A2998 RMK AO2
KPGV 151525Z AUTO 00000KT 10SM CLR 07/01 A2999 RMK AO2
KPGV 151505Z AUTO 00000KT 10SM CLR 06/01 A3000 RMK AO2
KPGV 151445Z AUTO 00000KT 10SM CLR 05/00 A3001 RMK AO2
KPGV 151425Z AUTO 00000KT 10SM CLR 05/00 A3000 RMK AO2
KPGV 151405Z AUTO 10003KT 10SM CLR 03/00 A3000 RMK AO2
KPGV 151345Z AUTO 00000KT 10SM CLR 02/M01 A3000 RMK AO2
KPGV 151325Z AUTO 00000KT 10SM CLR 02/M01 A3000 RMK AO2
KPGV 151305Z AUTO 03003KT 10SM CLR 02/00 A3001 RMK AO2
KPGV 151245Z AUTO 00000KT 10SM CLR 01/M01 A3002 RMK AO2
KPGV 151225Z AUTO 01003KT 10SM CLR 01/M01 A3002 RMK AO2
KPGV 151205Z AUTO 00000KT 10SM CLR 01/00 A3001 RMK AO2
KPGV 151145Z AUTO 03004KT 10SM CLR 01/00 A3001 RMK AO2
KPGV 151125Z AUTO 01003KT 10SM CLR 01/00 A3003 RMK AO2
KPGV 151105Z AUTO 00000KT 10SM CLR 01/00 A3003 RMK AO2
KPGV 151045Z AUTO 02005KT 10SM CLR 01/M01 A3002 RMK AO2
KPGV 151025Z AUTO 01003KT 10SM CLR 01/M01 A3002 RMK AO2
KPGV 151005Z AUTO 01003KT 10SM CLR 01/M01 A3003 RMK AO2
KPGV 150945Z AUTO 02004KT 10SM CLR 01/M01 A3003 RMK AO2
KPGV 150925Z AUTO 01003KT 10SM CLR 01/M01 A3003 RMK AO2
KPGV 150905Z AUTO 01003KT 10SM CLR 01/M01 A3003 RMK AO2
KPGV 150845Z AUTO 01003KT 10SM CLR 01/M01 A3004 RMK AO2
KPGV 150825Z AUTO 01003KT 10SM CLR 00/M01 A3004 RMK AO2
KPGV 150805Z AUTO 01004KT 10SM CLR 00/M02 A3004 RMK AO2
KPGV 150745Z AUTO 01003KT 10SM CLR 00/M02 A3005 RMK AO2
KPGV 150725Z AUTO 00000KT 10SM CLR 00/M02 A3005 RMK AO2
KPGV 150705Z AUTO 00000KT 10SM CLR 01/M01 A3005 RMK AO2
KPGV 150645Z AUTO 00000KT 10SM CLR 00/M01 A3004 RMK AO2
KPGV 150625Z AUTO 03003KT 10SM CLR 00/M01 A3004 RMK AO2
KPGV 150605Z AUTO 36004KT 10SM CLR 00/M01 A3005 RMK AO2
KPGV 150545Z AUTO 04003KT 10SM CLR 01/M01 A3005 RMK AO2
KPGV 150525Z AUTO 00000KT 10SM CLR 02/M01 A3005 RMK AO2
KPGV 150505Z AUTO 06003KT 10SM CLR 02/00 A3004 RMK AO2
KPGV 150445Z AUTO 05004KT 10SM CLR 03/00 A3005 RMK AO2
KPGV 150425Z AUTO 05003KT 10SM CLR 02/00 A3005 RMK AO2
KPGV 150405Z AUTO 00000KT 10SM CLR 02/00 A3005 RMK AO2
KPGV 150345Z AUTO 00000KT 10SM CLR 03/00 A3006 RMK AO2
KPGV 150325Z AUTO 06003KT 10SM CLR 03/00 A3005 RMK AO2
KPGV 150305Z AUTO 08004KT 10SM CLR 03/00 A3005 RMK AO2
KPGV 150245Z AUTO 08004KT 10SM CLR 04/00 A3004 RMK AO2
KPGV 150225Z AUTO 10006KT 10SM CLR 04/00 A3004 RMK AO2
KPGV 150205Z AUTO 09008KT 10SM CLR 04/00 A3003 RMK AO2
KPGV 150145Z AUTO 00000KT 10SM CLR 02/M01 A3002 RMK AO2
KPGV 150125Z AUTO 00000KT 10SM CLR 01/00 A3001 RMK AO2
KPGV 150105Z AUTO 00000KT 10SM CLR 02/00 A3001 RMK AO2
KPGV 150045Z AUTO 00000KT 10SM CLR 03/00 A3001 RMK AO2
KPGV 150025Z AUTO 00000KT 10SM CLR 02/M01 A3000 RMK AO2
KPGV 150005Z AUTO 00000KT 10SM CLR 03/00 A2999 RMK AO2
KPGV 142345Z AUTO 00000KT 10SM CLR 04/M01 A2999 RMK AO2
KPGV 142325Z AUTO 00000KT 10SM CLR 03/M01 A2998 RMK AO2
KPGV 142305Z AUTO 00000KT 10SM CLR 06/M01 A2997 RMK AO2
KPGV 142245Z AUTO 00000KT 10SM CLR 05/M01 A2996 RMK AO2
KPGV 142225Z AUTO 00000KT 10SM CLR 08/M01 A2995 RMK AO2
KPGV 142205Z AUTO 00000KT 10SM CLR 09/M02 A2994 RMK AO2
KPGV 142145Z AUTO 00000KT 10SM CLR 12/M03 A2992 RMK AO2
KPGV 142125Z AUTO 33003KT 10SM CLR 13/M03 A2991 RMK AO2
KPGV 142105Z AUTO 30003KT 10SM CLR 13/M03 A2990 RMK AO2
KPGV 142045Z AUTO 31005KT 10SM CLR 13/M03 A2989 RMK AO2
KPGV 142025Z AUTO 28003KT 10SM CLR 13/M02 A2988 RMK AO2
KPGV 142005Z AUTO 00000KT 10SM CLR 13/M02 A2988 RMK AO2
KPGV 141945Z AUTO 29003KT 10SM CLR 13/M03 A2987 RMK AO2
KPGV 141925Z AUTO 30005KT 10SM CLR 13/M03 A2987 RMK AO2
KPGV 141905Z AUTO 31004KT 10SM CLR 13/M03 A2987 RMK AO2
KPGV 141845Z AUTO 31005KT 10SM CLR 13/M02 A2987 RMK AO2
KPGV 141825Z AUTO 31009KT 10SM CLR 13/M02 A2987 RMK AO2
KPGV 141805Z AUTO 27008KT 243V303 10SM CLR 13/M02 A2988 RMK AO2
KPGV 141745Z AUTO 30007KT 253V333 10SM CLR 12/M02 RMK AO2
KPGV 141725Z AUTO 30006KT 10SM CLR 12/M02 A2988 RMK AO2
KPGV 141705Z AUTO 28006KT 10SM CLR 11/M03 A2988 RMK AO2
KPGV 141645Z AUTO 28009G14KT 10SM CLR 11/M03 A2988 RMK AO2
KPGV 141625Z AUTO 30009KT 10SM CLR 11/M03 A2988 RMK AO2
KPGV 141605Z AUTO 29005KT 10SM CLR 10/M03 A2988 RMK AO2
KPGV 141545Z AUTO 28008KT 253V313 10SM CLR 10/M03 A2988 RMK AO2
KPGV 141525Z AUTO 27006KT 10SM CLR 09/M03 A2989 RMK AO2
KPGV 141505Z AUTO 26007KT 10SM CLR 08/M03 A2988 RMK AO2
KPGV 141445Z AUTO 26007KT 10SM CLR 08/M03 A2986 RMK AO2
KPGV 141425Z AUTO 26006KT 10SM CLR 07/M04 A2985 RMK AO2
KPGV 141405Z AUTO 26007KT 10SM CLR 06/M04 A2984 RMK AO2
KPGV 141345Z AUTO 24008KT 10SM CLR 05/M04 A2983 RMK AO2
KPGV 141325Z AUTO 24008KT 10SM CLR 05/M05 A2982 RMK AO2
KPGV 141305Z AUTO 24006KT 10SM CLR 03/M05 A2982 RMK AO2
KPGV 141245Z AUTO 24006KT 10SM CLR 03/M05 A2981 RMK AO2
KPGV 141225Z AUTO 23007KT 10SM CLR 02/M05 A2981 RMK AO2
KPGV 141205Z AUTO 24006KT 10SM CLR 02/M05 A2980 RMK AO2
KPGV 141145Z AUTO 24007KT 10SM CLR 03/M05 A2979 RMK AO2
KPGV 141125Z AUTO 24007KT 10SM CLR 03/M05 A2978 RMK AO2
KPGV 141105Z AUTO 24007KT 10SM CLR 03/M05 A2977 RMK AO2
KPGV 141045Z AUTO 23007KT 10SM CLR 03/M05 A2976 RMK AO2
KPGV 141025Z AUTO 23008KT 10SM CLR 03/M05 A2975 RMK AO2
KPGV 141005Z AUTO 23009KT 10SM CLR 03/M05 A2975 RMK AO2
KPGV 140945Z AUTO 23006KT 10SM CLR 03/M05 A2975 RMK AO2